Time;durP1;ratioP1;P1;durP2;ratioP2;P2;SDS_P1;SDS_P2;PMS_P1;PMS_P2;Temp;Humidity;BMP_temperature;BMP_pressure;BME280_temperature;BME280_humidity;BME280_pressure;Samples;Min_cycle;Max_cycle;Signal;HPM_P1;HPM_P2
2021/05/29 00:01:08;;;;;;;21.53;11.57;;;10.40;99.90;;;;;;5071040;28;20173;-66
2021/05/29 00:03:34;;;;;;;19.13;10.83;;;10.40;99.90;;;;;;5071308;28;20283;-67
2021/05/29 00:06:01;;;;;;;22.33;11.57;;;10.40;99.90;;;;;;5071164;28;20208;-67
2021/05/29 00:08:27;;;;;;;18.00;10.90;;;10.40;99.90;;;;;;5071488;28;20189;-67
2021/05/29 00:10:55;;;;;;;18.20;9.50;;;10.40;99.90;;;;;;5071159;28;20173;-67
2021/05/29 00:13:23;;;;;;;19.60;11.03;;;10.40;99.90;;;;;;5071467;28;20192;-66
2021/05/29 00:15:49;;;;;;;18.50;10.60;;;10.30;99.90;;;;;;5070842;28;20231;-67
2021/05/29 00:18:15;;;;;;;21.70;11.10;;;10.30;99.90;;;;;;5071426;28;20180;-67
2021/05/29 00:20:41;;;;;;;18.70;10.20;;;10.30;99.90;;;;;;5071224;28;20165;-66
2021/05/29 00:23:09;;;;;;;20.23;10.97;;;10.30;99.90;;;;;;5071187;28;20252;-67
2021/05/29 00:25:35;;;;;;;20.67;11.57;;;10.30;99.90;;;;;;5070692;28;20188;-67
2021/05/29 00:28:01;;;;;;;17.87;11.03;;;10.30;99.90;;;;;;5071196;28;20215;-67
2021/05/29 00:30:27;;;;;;;22.53;11.80;;;10.20;99.90;;;;;;5071104;28;20601;-66
2021/05/29 00:32:52;;;;;;;21.07;11.70;;;10.30;99.90;;;;;;5071013;28;20180;-66
2021/05/29 00:35:18;;;;;;;18.53;11.60;;;10.20;99.90;;;;;;5070917;28;20272;-67
2021/05/29 00:37:44;;;;;;;23.83;14.27;;;10.20;99.90;;;;;;5070836;28;20173;-66
2021/05/29 00:40:11;;;;;;;25.50;13.33;;;10.20;99.90;;;;;;5070651;28;20595;-67
2021/05/29 00:42:36;;;;;;;24.53;12.67;;;10.30;99.90;;;;;;5070600;28;20268;-66
2021/05/29 00:45:03;;;;;;;20.83;12.03;;;10.30;99.90;;;;;;5071113;28;20542;-67
2021/05/29 00:47:29;;;;;;;22.73;12.63;;;10.30;99.90;;;;;;5070985;28;20715;-67
2021/05/29 00:50:00;;;;;;;20.10;12.23;;;10.30;99.90;;;;;;5071350;28;20183;-67
2021/05/29 00:52:26;;;;;;;21.93;12.63;;;10.30;99.90;;;;;;5070516;28;20172;-67
2021/05/29 00:54:53;;;;;;;20.90;12.87;;;10.30;99.90;;;;;;5070836;28;20169;-68
2021/05/29 00:57:19;;;;;;;21.23;13.17;;;10.40;99.90;;;;;;5071081;28;20173;-67
2021/05/29 00:59:45;;;;;;;21.27;12.40;;;10.40;99.90;;;;;;5070564;28;20181;-67
2021/05/29 01:02:14;;;;;;;24.30;12.80;;;10.50;99.90;;;;;;5070718;28;20223;-67
2021/05/29 01:04:40;;;;;;;21.57;11.90;;;10.50;99.90;;;;;;5052672;28;20230;-67
2021/05/29 01:07:12;;;;;;;22.10;12.70;;;10.50;99.90;;;;;;5096314;22;20239;-69
2021/05/29 01:09:41;;;;;;;18.70;11.97;;;10.60;99.90;;;;;;5077293;28;20165;-69
2021/05/29 01:12:09;;;;;;;19.50;11.97;;;10.60;99.90;;;;;;5079016;28;20165;-69
2021/05/29 01:14:46;;;;;;;20.83;11.43;;;10.70;99.90;;;;;;5079769;28;20576;-69
2021/05/29 01:17:12;;;;;;;18.60;12.00;;;10.70;99.90;;;;;;5078433;28;20196;-69
2021/05/29 01:19:37;;;;;;;17.70;11.87;;;10.70;99.90;;;;;;5060714;28;20177;-69
2021/05/29 01:22:06;;;;;;;23.80;11.47;;;10.70;99.90;;;;;;5077281;28;20203;-69
2021/05/29 01:24:31;;;;;;;17.27;11.97;;;10.70;99.90;;;;;;5076333;28;20184;-69
2021/05/29 01:26:57;;;;;;;18.50;10.33;;;10.80;99.90;;;;;;5076459;28;20193;-70
2021/05/29 01:29:22;;;;;;;23.93;12.13;;;10.70;99.90;;;;;;5076615;28;20169;-70
2021/05/29 01:31:58;;;;;;;16.70;11.80;;;10.70;99.90;;;;;;5075918;28;20171;-70
2021/05/29 01:34:24;;;;;;;20.60;11.17;;;10.70;99.90;;;;;;5076895;28;20203;-70
2021/05/29 01:50:18;;;;;;;20.10;9.97;;;10.70;99.90;;;;;;5073026;28;20627;-70
2021/05/29 01:52:48;;;;;;;18.27;11.17;;;10.70;99.90;;;;;;5074773;28;20538;-70
2021/05/29 01:55:15;;;;;;;18.83;11.27;;;10.70;99.90;;;;;;5074612;28;20200;-70
2021/05/29 01:57:41;;;;;;;20.60;12.33;;;10.70;99.90;;;;;;5074661;28;20682;-70
2021/05/29 02:00:08;;;;;;;20.47;11.80;;;10.70;99.90;;;;;;5074486;28;20201;-70
2021/05/29 02:02:34;;;;;;;16.43;10.67;;;10.70;99.90;;;;;;5073819;28;20427;-70
2021/05/29 02:05:18;;;;;;;18.00;10.77;;;10.70;99.90;;;;;;5074882;28;20608;-70
2021/05/29 02:07:44;;;;;;;16.27;10.83;;;10.70;99.90;;;;;;5074660;28;20208;-70
2021/05/29 02:10:15;;;;;;;22.17;11.03;;;10.60;99.90;;;;;;5074499;28;20174;-70
2021/05/29 02:12:44;;;;;;;18.40;10.50;;;10.60;99.90;;;;;;5074035;28;20240;-70
2021/05/29 02:15:14;;;;;;;16.87;10.27;;;10.60;99.90;;;;;;5073731;28;20606;-70
2021/05/29 02:17:40;;;;;;;20.30;11.23;;;10.60;99.90;;;;;;5056010;28;20181;-70
2021/05/29 02:20:07;;;;;;;16.60;10.77;;;10.60;99.90;;;;;;5073317;28;20546;-70
2021/05/29 02:22:33;;;;;;;17.53;10.73;;;10.50;99.90;;;;;;5055690;28;20177;-70
2021/05/29 02:24:58;;;;;;;20.90;10.97;;;10.50;99.90;;;;;;5074041;28;20207;-70
2021/05/29 02:27:24;;;;;;;14.40;10.50;;;10.50;99.90;;;;;;5074572;28;20235;-69
2021/05/29 02:29:50;;;;;;;18.17;11.20;;;10.40;99.90;;;;;;5073890;28;20165;-70
2021/05/29 02:32:15;;;;;;;12.57;9.07;;;10.40;99.90;;;;;;5073535;28;20639;-70
2021/05/29 02:34:41;;;;;;;20.97;12.27;;;10.30;99.90;;;;;;5073584;28;20535;-70
2021/05/29 02:37:06;;;;;;;18.40;12.13;;;10.30;99.90;;;;;;5072949;28;20273;-70
2021/05/29 02:39:32;;;;;;;16.70;12.13;;;10.30;99.90;;;;;;5072680;28;20172;-70
2021/05/29 02:41:57;;;;;;;18.33;12.20;;;10.30;99.90;;;;;;5073075;28;20256;-70
2021/05/29 02:44:24;;;;;;;22.67;13.80;;;10.30;99.90;;;;;;5072785;28;20170;-70
2021/05/29 02:46:50;;;;;;;20.00;12.93;;;10.30;99.90;;;;;;5073139;28;20777;-70
2021/05/29 02:49:16;;;;;;;20.47;12.33;;;10.30;99.90;;;;;;5073079;28;20228;-70
2021/05/29 02:51:41;;;;;;;21.23;12.87;;;10.30;99.90;;;;;;5072418;28;20547;-70
2021/05/29 02:54:08;;;;;;;24.50;13.90;;;10.30;99.90;;;;;;5072688;28;20161;-70
2021/05/29 02:56:33;;;;;;;22.67;13.10;;;10.30;99.90;;;;;;5072763;28;20254;-70
2021/05/29 02:58:59;;;;;;;16.83;12.40;;;10.30;99.90;;;;;;5072703;28;20571;-70
2021/05/29 03:01:24;;;;;;;21.37;14.20;;;10.30;99.90;;;;;;5072303;28;20219;-70
2021/05/29 03:03:50;;;;;;;22.27;13.03;;;10.30;99.90;;;;;;5055300;28;20174;-70
2021/05/29 03:06:18;;;;;;;21.17;12.67;;;10.30;99.90;;;;;;5072328;28;20205;-70
2021/05/29 03:08:43;;;;;;;25.33;13.20;;;10.30;99.90;;;;;;5072670;28;20212;-70
2021/05/29 03:11:12;;;;;;;21.50;13.63;;;10.40;99.90;;;;;;5072569;28;20173;-71
2021/05/29 03:13:37;;;;;;;24.17;12.93;;;10.40;99.90;;;;;;5072515;28;20325;-71
2021/05/29 03:16:04;;;;;;;19.17;12.00;;;10.40;99.90;;;;;;5072500;28;20264;-70
2021/05/29 03:18:30;;;;;;;19.63;11.70;;;10.30;99.90;;;;;;5072322;28;20252;-70
2021/05/29 03:20:57;;;;;;;17.73;11.23;;;10.30;99.90;;;;;;5071857;28;20173;-70
2021/05/29 03:23:24;;;;;;;23.57;11.43;;;10.30;99.90;;;;;;5072208;28;20259;-70
2021/05/29 03:25:50;;;;;;;18.13;11.40;;;10.30;99.90;;;;;;5072263;28;20562;-70
2021/05/29 03:28:15;;;;;;;19.10;11.63;;;10.30;99.90;;;;;;5071935;28;20284;-70
2021/05/29 03:30:42;;;;;;;21.77;11.60;;;10.40;99.90;;;;;;5071736;28;20301;-70
2021/05/29 03:33:08;;;;;;;26.00;11.97;;;10.40;99.90;;;;;;5071366;28;20257;-70
2021/05/29 03:35:33;;;;;;;21.83;11.30;;;10.50;99.90;;;;;;5071930;28;20197;-70
2021/05/29 03:37:59;;;;;;;21.63;11.27;;;10.50;99.90;;;;;;5071777;28;20176;-71
2021/05/29 03:40:25;;;;;;;23.70;12.17;;;10.50;99.90;;;;;;5071780;28;20578;-70
2021/05/29 03:42:51;;;;;;;21.87;11.43;;;10.60;99.90;;;;;;5071688;28;20165;-69
2021/05/29 03:45:18;;;;;;;19.33;12.03;;;10.70;99.90;;;;;;5071628;28;20181;-69
2021/05/29 03:47:46;;;;;;;20.07;11.97;;;10.80;99.90;;;;;;5071602;28;20329;-70
2021/05/29 03:50:14;;;;;;;20.83;12.13;;;10.90;99.90;;;;;;5072086;28;20173;-71
2021/05/29 03:52:41;;;;;;;21.00;13.10;;;10.90;99.90;;;;;;5071544;28;20165;-71
2021/05/29 03:55:08;;;;;;;19.23;12.33;;;11.00;99.90;;;;;;5071688;28;20558;-70
2021/05/29 03:57:33;;;;;;;17.93;11.63;;;11.10;99.90;;;;;;5071205;28;20238;-71
2021/05/29 03:59:59;;;;;;;22.20;13.27;;;11.10;99.90;;;;;;5069762;28;20680;-71
2021/05/29 04:02:25;;;;;;;21.73;12.60;;;11.20;99.90;;;;;;5071477;28;20229;-70
2021/05/29 04:04:50;;;;;;;22.90;12.90;;;11.20;99.90;;;;;;5072313;28;20655;-70
2021/05/29 04:07:16;;;;;;;24.53;13.03;;;11.20;99.90;;;;;;5071674;28;20715;-71
2021/05/29 04:09:41;;;;;;;22.27;14.63;;;11.30;99.90;;;;;;5071502;28;20223;-71
2021/05/29 04:12:07;;;;;;;21.47;13.00;;;11.30;99.90;;;;;;5071026;28;20173;-70
2021/05/29 04:14:34;;;;;;;23.50;12.57;;;11.40;99.90;;;;;;5071195;28;20173;-70
2021/05/29 04:17:00;;;;;;;23.00;12.53;;;11.30;99.90;;;;;;5071269;28;20217;-70
2021/05/29 04:19:26;;;;;;;22.37;13.20;;;11.40;99.90;;;;;;5070928;28;20668;-70
2021/05/29 04:21:51;;;;;;;21.50;12.50;;;11.40;99.90;;;;;;5070831;28;20189;-70
2021/05/29 04:24:17;;;;;;;23.70;13.43;;;11.60;99.90;;;;;;5071203;28;20655;-70
2021/05/29 04:26:42;;;;;;;15.77;9.60;;;11.70;99.90;;;;;;5071277;28;20564;-70
2021/05/29 04:29:08;;;;;;;18.73;13.30;;;11.60;99.90;;;;;;5071165;28;20251;-71
2021/05/29 04:31:33;;;;;;;19.13;12.20;;;11.70;99.90;;;;;;5071899;28;20266;-69
2021/05/29 04:33:59;;;;;;;20.37;12.17;;;11.70;99.90;;;;;;5052763;28;20169;-70
2021/05/29 04:36:24;;;;;;;22.53;12.70;;;11.80;99.90;;;;;;5070777;28;20193;-70
2021/05/29 04:38:50;;;;;;;25.33;12.97;;;11.90;99.90;;;;;;5070945;28;20177;-70
2021/05/29 04:41:15;;;;;;;18.20;12.07;;;11.90;99.90;;;;;;5070815;28;20180;-71
2021/05/29 04:43:41;;;;;;;16.07;11.80;;;12.00;99.90;;;;;;5071163;28;20694;-72
2021/05/29 04:46:06;;;;;;;17.93;12.07;;;12.00;99.90;;;;;;5071092;28;20203;-69
2021/05/29 04:48:32;;;;;;;22.50;12.23;;;12.00;99.90;;;;;;5070701;28;20669;-69
2021/05/29 04:51:13;;;;;;;20.97;12.60;;;12.00;99.90;;;;;;5070681;28;20323;-69
2021/05/29 04:53:46;;;;;;;20.87;13.03;;;12.00;99.90;;;;;;5070867;28;20637;-70
2021/05/29 04:56:13;;;;;;;20.20;12.23;;;12.00;99.90;;;;;;5071152;28;20192;-70
2021/05/29 04:58:41;;;;;;;19.87;12.30;;;11.90;99.90;;;;;;5071274;28;20263;-70
2021/05/29 05:01:09;;;;;;;22.70;10.90;;;11.90;99.90;;;;;;5070793;28;20294;-70
2021/05/29 05:03:35;;;;;;;21.37;12.53;;;12.00;99.90;;;;;;5070571;28;20172;-70
2021/05/29 05:06:00;;;;;;;18.23;11.30;;;11.80;99.90;;;;;;5071406;28;20208;-70
2021/05/29 05:08:26;;;;;;;19.50;12.03;;;11.70;99.90;;;;;;5070583;28;20207;-70
2021/05/29 05:10:55;;;;;;;16.00;10.87;;;11.80;99.90;;;;;;5070967;28;20169;-70
2021/05/29 05:13:20;;;;;;;21.03;11.67;;;11.60;99.90;;;;;;5070817;28;20248;-71
2021/05/29 05:15:46;;;;;;;20.90;11.63;;;11.60;99.90;;;;;;5070735;28;20212;-71
2021/05/29 05:18:11;;;;;;;19.47;12.00;;;11.60;99.90;;;;;;5071002;28;20173;-71
2021/05/29 05:20:38;;;;;;;20.43;11.33;;;11.60;99.90;;;;;;5070816;28;20177;-71
2021/05/29 05:23:04;;;;;;;19.33;12.83;;;11.60;99.90;;;;;;5070746;28;20177;-71
2021/05/29 05:25:31;;;;;;;18.63;12.13;;;11.60;99.90;;;;;;5070873;28;20586;-71
2021/05/29 05:27:58;;;;;;;18.33;12.53;;;11.60;99.90;;;;;;5070383;28;20250;-70
2021/05/29 05:30:24;;;;;;;22.27;12.73;;;11.70;99.90;;;;;;5052326;28;20219;-71
2021/05/29 05:32:50;;;;;;;24.80;13.90;;;11.60;99.90;;;;;;5070360;28;20170;-71
2021/05/29 05:35:17;;;;;;;22.53;12.97;;;11.60;99.90;;;;;;5070637;28;20211;-71
2021/05/29 05:37:44;;;;;;;19.97;13.87;;;11.70;99.90;;;;;;5070646;28;20172;-70
2021/05/29 05:40:10;;;;;;;20.50;12.80;;;11.70;99.90;;;;;;5070470;28;20248;-70
2021/05/29 05:42:37;;;;;;;18.97;12.30;;;11.80;99.90;;;;;;5070107;28;20680;-70
2021/05/29 05:45:05;;;;;;;19.03;11.60;;;11.60;99.90;;;;;;5070266;28;20657;-70
2021/05/29 05:47:31;;;;;;;19.57;12.00;;;11.60;99.90;;;;;;5069932;28;20220;-70
2021/05/29 05:49:56;;;;;;;18.23;10.87;;;11.50;99.90;;;;;;5070610;28;20161;-69
2021/05/29 05:52:22;;;;;;;16.43;9.03;;;11.60;99.90;;;;;;5070110;28;20219;-69
2021/05/29 05:54:48;;;;;;;16.40;11.60;;;11.60;99.90;;;;;;5070263;28;20215;-69
2021/05/29 05:57:14;;;;;;;18.30;12.43;;;11.50;99.90;;;;;;5073916;28;20201;-70
2021/05/29 05:59:40;;;;;;;18.40;12.10;;;11.70;99.90;;;;;;5074066;28;20179;-70
2021/05/29 06:02:06;;;;;;;18.13;11.17;;;11.80;99.90;;;;;;5055980;28;20176;-71
2021/05/29 06:04:32;;;;;;;19.13;11.60;;;11.80;99.90;;;;;;5056383;28;20177;-70
2021/05/29 06:06:57;;;;;;;14.30;10.83;;;11.70;99.90;;;;;;5073586;28;20219;-70
2021/05/29 06:09:23;;;;;;;17.30;11.63;;;11.60;99.90;;;;;;5073485;28;20176;-70
2021/05/29 06:11:48;;;;;;;18.83;12.23;;;11.60;99.90;;;;;;5073648;28;20173;-70
2021/05/29 06:19:45;;;;;;;23.57;13.47;;;11.30;99.90;;;;;;5073759;28;20208;-70
2021/05/29 06:22:11;;;;;;;19.87;13.60;;;11.40;99.90;;;;;;5073330;28;20163;-71
2021/05/29 06:24:37;;;;;;;22.33;13.43;;;11.50;99.90;;;;;;5073386;28;20188;-71
2021/05/29 06:27:03;;;;;;;23.17;13.77;;;11.50;99.90;;;;;;5073658;28;20196;-70
2021/05/29 06:29:29;;;;;;;23.30;12.97;;;11.70;99.90;;;;;;5073256;28;20172;-70
2021/05/29 06:31:54;;;;;;;20.23;12.70;;;11.50;99.90;;;;;;5073285;28;20495;-70
2021/05/29 06:34:20;;;;;;;21.80;14.23;;;11.50;99.90;;;;;;5075591;28;20200;-70
2021/05/29 06:36:46;;;;;;;18.60;12.80;;;11.60;99.90;;;;;;5076070;28;20193;-69
2021/05/29 06:39:12;;;;;;;22.47;13.80;;;11.70;99.90;;;;;;5073469;28;20184;-70
2021/05/29 06:41:40;;;;;;;24.07;14.47;;;11.70;99.90;;;;;;5073335;28;20197;-69
2021/05/29 06:44:06;;;;;;;20.13;13.57;;;11.80;99.90;;;;;;5073309;28;20242;-70
2021/05/29 06:46:32;;;;;;;28.10;14.63;;;11.80;99.90;;;;;;5073138;28;20673;-70
2021/05/29 06:48:57;;;;;;;21.00;14.07;;;11.80;99.90;;;;;;5072880;28;20657;-70
2021/05/29 06:51:37;;;;;;;25.00;14.17;;;11.60;99.90;;;;;;5072876;28;20165;-70
2021/05/29 06:54:08;;;;;;;23.50;13.90;;;11.70;99.90;;;;;;5073434;28;20173;-71
2021/05/29 06:59:18;;;;;;;26.17;14.50;;;11.70;99.90;;;;;;5073012;28;20227;-70
2021/05/29 07:01:44;;;;;;;22.33;13.93;;;11.70;99.90;;;;;;5072268;28;20200;-70
2021/05/29 07:04:10;;;;;;;21.57;13.40;;;11.80;99.90;;;;;;5072629;28;20169;-70
2021/05/29 07:06:36;;;;;;;23.00;13.67;;;11.70;99.90;;;;;;5092400;22;20228;-67
2021/05/29 07:09:01;;;;;;;24.57;14.57;;;11.80;99.90;;;;;;5072334;28;20205;-67
2021/05/29 07:11:27;;;;;;;21.80;12.97;;;12.00;99.90;;;;;;5072938;28;20173;-68
2021/05/29 07:13:52;;;;;;;23.90;13.37;;;12.10;99.90;;;;;;5073423;28;20161;-67
2021/05/29 07:16:19;;;;;;;18.93;12.47;;;12.30;99.90;;;;;;5072875;28;20188;-68
2021/05/29 07:18:45;;;;;;;20.00;12.23;;;12.30;99.90;;;;;;5072885;28;20169;-68
2021/05/29 07:21:16;;;;;;;15.60;10.50;;;12.40;99.90;;;;;;5072085;28;20230;-67
2021/05/29 07:23:43;;;;;;;15.03;10.83;;;12.60;99.90;;;;;;5072496;28;20200;-68
2021/05/29 07:26:09;;;;;;;15.57;11.10;;;12.50;99.90;;;;;;5072272;28;20224;-68
2021/05/29 07:28:34;;;;;;;16.20;10.03;;;12.60;99.90;;;;;;5072341;28;20236;-66
2021/05/29 07:31:00;;;;;;;18.00;11.30;;;12.60;99.90;;;;;;5072518;28;20165;-68
2021/05/29 07:33:26;;;;;;;18.13;11.30;;;12.50;99.90;;;;;;5072117;28;20170;-67
2021/05/29 07:35:53;;;;;;;17.97;11.40;;;12.70;99.90;;;;;;5072373;28;20568;-67
2021/05/29 07:38:18;;;;;;;14.43;9.90;;;12.80;99.90;;;;;;5072178;28;20264;-67
2021/05/29 07:40:44;;;;;;;15.47;11.37;;;12.90;99.90;;;;;;5072370;28;20660;-67
2021/05/29 07:43:10;;;;;;;19.80;10.83;;;13.20;99.90;;;;;;5054090;28;20177;-68
2021/05/29 07:45:35;;;;;;;22.30;12.10;;;13.40;99.90;;;;;;5071810;28;20180;-68
2021/05/29 07:48:01;;;;;;;15.40;10.97;;;13.50;99.90;;;;;;5071531;28;20290;-67
2021/05/29 07:50:27;;;;;;;16.27;10.83;;;13.40;99.90;;;;;;5071255;28;20174;-68
2021/05/29 07:52:53;;;;;;;23.77;11.27;;;13.00;99.90;;;;;;5071746;28;20510;-67
2021/05/29 07:55:18;;;;;;;17.33;10.70;;;13.10;99.90;;;;;;5071419;28;20199;-68
2021/05/29 07:57:44;;;;;;;13.90;10.40;;;13.40;99.90;;;;;;5071278;28;20196;-68
2021/05/29 08:00:12;;;;;;;16.80;9.97;;;13.30;99.90;;;;;;5071379;28;20199;-67
2021/05/29 08:02:38;;;;;;;14.93;9.87;;;13.30;99.90;;;;;;5071743;28;20169;-67
2021/05/29 08:05:05;;;;;;;17.13;9.57;;;13.50;99.90;;;;;;5053869;28;20264;-67
2021/05/29 08:07:31;;;;;;;17.17;10.53;;;13.30;99.90;;;;;;5071534;28;20215;-69
2021/05/29 08:09:57;;;;;;;12.87;8.87;;;13.30;99.90;;;;;;5071621;28;20247;-68
2021/05/29 08:12:23;;;;;;;16.20;9.47;;;13.20;99.90;;;;;;5071365;28;20248;-68
2021/05/29 08:14:49;;;;;;;13.53;9.87;;;13.10;99.90;;;;;;5071437;28;20207;-68
2021/05/29 08:17:14;;;;;;;13.63;9.30;;;13.50;99.90;;;;;;5053400;28;20189;-68
2021/05/29 08:19:40;;;;;;;14.30;10.20;;;13.70;99.90;;;;;;5070740;28;20162;-67
2021/05/29 08:22:05;;;;;;;12.97;8.63;;;13.90;99.90;;;;;;5071001;28;20169;-67
2021/05/29 08:24:31;;;;;;;15.47;7.90;;;14.10;99.90;;;;;;5071080;28;20165;-69
2021/05/29 08:26:56;;;;;;;15.30;8.83;;;14.70;99.90;;;;;;5071102;28;20212;-67
2021/05/29 08:29:22;;;;;;;12.33;8.30;;;14.80;99.90;;;;;;5070678;28;20220;-68
2021/05/29 08:31:48;;;;;;;13.87;8.43;;;15.10;99.90;;;;;;5070854;28;20540;-68
2021/05/29 08:34:13;;;;;;;13.67;9.07;;;15.40;99.90;;;;;;5071674;28;20205;-68
2021/05/29 08:36:40;;;;;;;9.47;6.97;;;15.40;99.90;;;;;;5071102;28;20214;-69
2021/05/29 08:39:07;;;;;;;13.23;8.67;;;14.60;99.90;;;;;;5070818;28;20184;-67
2021/05/29 08:41:34;;;;;;;13.70;9.03;;;14.50;99.90;;;;;;5070555;28;20174;-68
2021/05/29 08:43:59;;;;;;;9.70;7.80;;;14.50;99.90;;;;;;5070755;28;20637;-68
2021/05/29 08:46:25;;;;;;;12.37;9.17;;;14.10;99.90;;;;;;5071422;28;20288;-68
2021/05/29 08:48:54;;;;;;;13.63;9.33;;;14.50;99.90;;;;;;5070930;28;20266;-67
2021/05/29 08:51:20;;;;;;;12.83;8.63;;;14.70;99.90;;;;;;5073413;28;20590;-68
2021/05/29 08:53:51;;;;;;;11.60;8.03;;;14.90;99.90;;;;;;5073725;28;20168;-69
2021/05/29 08:56:19;;;;;;;13.87;7.80;;;14.80;99.90;;;;;;5071361;28;20181;-67
2021/05/29 08:58:45;;;;;;;10.73;7.37;;;15.10;99.90;;;;;;5053702;28;20540;-68
2021/05/29 09:01:11;;;;;;;10.97;7.67;;;15.40;99.90;;;;;;5070334;28;20579;-67
2021/05/29 09:03:48;;;;;;;10.77;8.03;;;15.70;99.90;;;;;;5070954;28;20664;-68
2021/05/29 09:06:17;;;;;;;14.10;8.40;;;16.40;99.90;;;;;;5071492;28;20208;-67
2021/05/29 09:08:50;;;;;;;12.73;7.67;;;16.20;99.90;;;;;;5053919;28;20691;-69
2021/05/29 09:11:50;;;;;;;15.47;8.57;;;16.30;99.90;;;;;;5070879;28;20637;-69
2021/05/29 09:14:29;;;;;;;13.50;8.03;;;16.10;99.90;;;;;;5071136;28;20198;-69
2021/05/29 09:17:08;;;;;;;15.70;9.00;;;16.40;99.90;;;;;;5052725;28;20284;-70
2021/05/29 09:19:55;;;;;;;13.50;8.33;;;16.00;99.90;;;;;;5070666;28;20174;-69
2021/05/29 09:22:26;;;;;;;13.63;9.07;;;15.80;99.90;;;;;;5070154;28;20165;-68
2021/05/29 09:25:22;;;;;;;15.47;9.27;;;15.90;99.90;;;;;;5070669;28;20177;-67
2021/05/29 09:27:52;;;;;;;13.10;8.33;;;15.50;99.90;;;;;;5069650;28;20281;-69
2021/05/29 09:30:39;;;;;;;10.60;7.67;;;15.60;99.90;;;;;;5070921;28;20679;-68
2021/05/29 09:33:11;;;;;;;14.10;9.23;;;15.60;99.90;;;;;;5075187;28;20179;-68
2021/05/29 09:35:37;;;;;;;13.63;8.50;;;15.70;99.90;;;;;;5074272;28;20176;-68
2021/05/29 09:38:04;;;;;;;15.17;8.90;;;15.40;99.90;;;;;;5074669;28;20193;-68
2021/05/29 09:40:31;;;;;;;12.17;9.30;;;15.40;99.90;;;;;;5074037;28;20633;-68
2021/05/29 09:43:05;;;;;;;13.93;9.17;;;15.70;99.90;;;;;;5074417;28;20208;-68
2021/05/29 09:45:31;;;;;;;12.60;8.67;;;15.70;99.90;;;;;;5074437;28;20569;-68
2021/05/29 09:48:20;;;;;;;14.43;8.83;;;15.60;99.90;;;;;;5074071;28;20207;-68
2021/05/29 09:51:10;;;;;;;16.20;9.93;;;15.70;99.90;;;;;;5073549;28;20203;-68
2021/05/29 09:53:45;;;;;;;13.23;8.60;;;15.50;99.90;;;;;;5076798;28;20584;-68
2021/05/29 09:56:34;;;;;;;11.80;8.83;;;15.20;99.90;;;;;;5056883;28;20214;-68
2021/05/29 09:59:08;;;;;;;9.10;8.20;;;15.20;99.90;;;;;;5073728;28;20173;-68
2021/05/29 10:01:50;;;;;;;14.03;9.60;;;15.40;99.90;;;;;;5073382;28;20169;-68
2021/05/29 10:04:21;;;;;;;12.60;9.10;;;15.60;99.90;;;;;;5073731;28;20221;-68
2021/05/29 10:06:58;;;;;;;13.17;9.87;;;15.70;99.90;;;;;;5073631;28;20293;-68
2021/05/29 10:09:23;;;;;;;14.00;9.23;;;15.40;99.90;;;;;;5073383;28;20694;-67
2021/05/29 10:11:49;;;;;;;12.77;8.97;;;15.40;99.90;;;;;;5073145;28;20223;-67
2021/05/29 10:14:15;;;;;;;12.00;8.97;;;15.30;99.90;;;;;;5075279;28;20775;-69
2021/05/29 10:16:41;;;;;;;12.73;9.63;;;15.20;99.90;;;;;;5074730;28;20195;-68
2021/05/29 10:19:08;;;;;;;12.33;8.60;;;15.40;99.90;;;;;;5073424;28;20166;-68
2021/05/29 10:21:36;;;;;;;15.33;9.63;;;16.00;99.90;;;;;;5073021;28;20213;-68
2021/05/29 10:24:04;;;;;;;14.90;9.20;;;15.70;99.90;;;;;;5073305;28;20267;-68
2021/05/29 10:26:30;;;;;;;13.07;8.93;;;15.80;99.90;;;;;;5073218;28;20236;-68
2021/05/29 10:28:56;;;;;;;11.77;7.17;;;15.50;99.90;;;;;;5073209;28;20201;-68
2021/05/29 10:31:23;;;;;;;13.73;9.37;;;15.70;99.90;;;;;;5073212;28;20252;-68
2021/05/29 10:33:49;;;;;;;15.30;9.27;;;15.60;99.90;;;;;;5073289;28;20161;-68
2021/05/29 10:36:35;;;;;;;12.63;9.03;;;15.90;99.90;;;;;;5073553;28;20271;-68
2021/05/29 10:39:03;;;;;;;11.67;9.23;;;15.80;99.90;;;;;;5072904;28;20706;-68
2021/05/29 10:41:48;;;;;;;12.33;8.27;;;15.80;99.90;;;;;;5073027;28;20231;-69
2021/05/29 10:44:41;;;;;;;14.17;9.43;;;15.70;99.90;;;;;;5072989;28;20177;-68
2021/05/29 10:47:17;;;;;;;10.93;7.63;;;16.20;99.90;;;;;;5072824;28;20275;-68
2021/05/29 10:49:49;;;;;;;12.23;8.17;;;15.90;99.90;;;;;;5073240;28;20173;-68
2021/05/29 10:52:30;;;;;;;12.43;9.17;;;16.20;99.90;;;;;;5073378;28;20176;-68
2021/05/29 10:55:08;;;;;;;11.57;9.07;;;16.60;99.90;;;;;;5075805;28;20173;-68
2021/05/29 10:57:59;;;;;;;16.67;10.40;;;16.80;99.90;;;;;;5073818;28;20234;-68
2021/05/29 11:00:40;;;;;;;12.03;8.27;;;16.70;99.90;;;;;;5073352;28;20172;-68
2021/05/29 11:03:24;;;;;;;13.70;9.13;;;16.80;99.90;;;;;;5072652;28;20641;-68
2021/05/29 11:05:57;;;;;;;11.63;7.97;;;17.00;99.90;;;;;;5073185;28;20238;-68
2021/05/29 11:08:55;;;;;;;14.77;8.43;;;17.30;99.90;;;;;;5039183;28;20204;-68
2021/05/29 11:11:43;;;;;;;11.07;8.03;;;17.10;99.90;;;;;;5072700;28;20681;-68
2021/05/29 11:14:18;;;;;;;13.87;8.50;;;16.80;99.90;;;;;;5072972;28;20172;-70
2021/05/29 11:16:50;;;;;;;11.67;7.97;;;16.90;99.90;;;;;;5073703;28;20672;-69
2021/05/29 11:19:22;;;;;;;14.10;8.40;;;16.90;99.90;;;;;;5054617;28;20588;-67
2021/05/29 11:22:17;;;;;;;10.80;6.80;;;16.70;99.90;;;;;;5071963;28;20645;-69
2021/05/29 11:24:49;;;;;;;9.73;8.23;;;16.50;99.90;;;;;;5072163;28;20521;-69
2021/05/29 11:27:19;;;;;;;12.27;8.70;;;16.80;99.90;;;;;;5072221;28;20193;-69
2021/05/29 11:29:53;;;;;;;13.30;8.93;;;16.50;99.90;;;;;;5054077;28;20255;-68
2021/05/29 11:35:41;;;;;;;14.37;7.73;;;16.70;99.90;;;;;;5072230;28;20261;-69
2021/05/29 11:38:08;;;;;;;10.73;7.70;;;17.00;99.90;;;;;;5072388;28;20544;-69
2021/05/29 11:40:48;;;;;;;11.10;7.50;;;17.30;99.90;;;;;;5071453;28;20497;-68
2021/05/29 11:43:17;;;;;;;9.93;7.67;;;16.40;99.90;;;;;;5054756;28;20177;-68
2021/05/29 11:45:43;;;;;;;10.87;7.63;;;16.70;99.90;;;;;;5072288;28;20173;-68
2021/05/29 11:48:10;;;;;;;10.63;7.20;;;16.60;99.90;;;;;;5071987;28;20201;-69
2021/05/29 11:50:40;;;;;;;10.10;6.93;;;16.70;99.90;;;;;;5071822;28;20235;-69
2021/05/29 11:53:08;;;;;;;10.50;7.47;;;16.70;99.90;;;;;;5071790;28;20554;-68
2021/05/29 11:55:53;;;;;;;15.50;7.50;;;16.70;99.90;;;;;;5072524;28;20248;-69
2021/05/29 11:58:19;;;;;;;12.50;7.73;;;17.60;99.90;;;;;;5071445;28;20168;-67
2021/05/29 12:00:56;;;;;;;11.20;7.33;;;17.20;99.90;;;;;;5053349;28;20267;-67
2021/05/29 12:03:44;;;;;;;10.87;7.80;;;17.10;99.90;;;;;;5071184;28;20225;-69
2021/05/29 12:06:10;;;;;;;11.70;7.87;;;17.10;99.90;;;;;;5071638;28;20213;-68
2021/05/29 12:08:56;;;;;;;11.93;9.23;;;16.90;99.90;;;;;;5071296;28;20215;-67
2021/05/29 12:11:23;;;;;;;13.30;8.10;;;16.80;99.90;;;;;;5053225;28;20169;-68
2021/05/29 12:13:56;;;;;;;11.13;7.10;;;17.10;99.90;;;;;;5072105;28;20173;-67
2021/05/29 12:16:38;;;;;;;13.43;8.93;;;17.40;99.90;;;;;;5071527;28;20760;-68
2021/05/29 12:19:05;;;;;;;11.53;7.50;;;16.90;99.90;;;;;;5071136;28;20645;-68
2021/05/29 12:21:42;;;;;;;11.70;7.97;;;16.60;99.90;;;;;;5071205;28;20177;-69
2021/05/29 12:24:08;;;;;;;10.30;8.37;;;17.10;99.90;;;;;;5071121;28;20168;-67
2021/05/29 12:26:34;;;;;;;12.43;9.03;;;17.30;99.90;;;;;;5071462;28;20207;-68
2021/05/29 12:29:00;;;;;;;12.80;8.37;;;16.90;99.90;;;;;;5072845;28;20224;-68
2021/05/29 12:31:46;;;;;;;14.30;9.70;;;16.30;99.90;;;;;;5072116;28;20797;-68
2021/05/29 12:34:12;;;;;;;11.90;8.10;;;16.60;99.90;;;;;;5071520;28;20166;-68
2021/05/29 12:37:01;;;;;;;12.23;8.10;;;17.00;99.90;;;;;;5071178;28;20743;-68
2021/05/29 12:39:47;;;;;;;12.77;8.13;;;17.20;99.90;;;;;;5070965;28;20177;-67
2021/05/29 12:42:33;;;;;;;14.33;8.77;;;17.50;99.90;;;;;;5070686;28;20203;-69
2021/05/29 12:45:03;;;;;;;11.73;9.17;;;17.50;99.90;;;;;;5070911;28;20165;-69
2021/05/29 12:47:31;;;;;;;10.97;8.00;;;17.70;99.90;;;;;;5071111;28;20661;-69
2021/05/29 12:49:58;;;;;;;9.70;7.40;;;17.10;99.90;;;;;;5053021;28;20165;-69
2021/05/29 12:52:34;;;;;;;12.77;7.77;;;17.20;99.90;;;;;;5071123;28;20165;-68
2021/05/29 12:55:03;;;;;;;11.17;7.90;;;17.60;99.90;;;;;;5073736;28;20263;-68
2021/05/29 12:57:45;;;;;;;9.37;7.80;;;17.30;99.90;;;;;;5071418;28;20189;-69
2021/05/29 13:00:20;;;;;;;10.13;7.60;;;17.50;99.90;;;;;;5054785;28;20553;-68
2021/05/29 13:08:49;;;;;;;9.30;6.60;;;17.40;99.90;;;;;;5098483;22;20315;-69
2021/05/29 13:11:31;;;;;;;9.03;7.20;;;17.10;99.90;;;;;;5076203;28;20295;-68